sim
Sign-in with your pilot id or email,
or register
Callsign
Passwort

Schedule Details

Flight Number: EWG9225 (1)
Departure: Gothenburg Landvetter Airport (ESGG) at 19:25
Arrival: Dusseldorf International Airport (EDDL) at 21:25
Route: Eurowings Passenger Schedule. Enter filed route here before submitting Pirep.

Weather Information
Getting current METAR information for ESGG 291350Z 23004KT 9999 FEW007 SCT043 09/07 Q1005
Getting current METAR information for EDDL 291350Z 23009KT 9999 -RA FEW022 12/08 Q1017 NOSIG

Schedule Frequency

Route Map